Terminal Aerodrome Forecast
Issued by NWS Omaha/Valley, NE

Home | Current Version | Previous Version | Text Only | Print | Product List | Glossary On
Versions: 1 2 3 4 5 6 7 8 9 10 11 12 13 14 15 16 17 18 19 20 21 22
000
FTUS43 KOAX 280520
TAFOFK
TAF
KOFK 280520Z 2806/2906 08004KT P6SM BKN080
     FM281000 06010KT P6SM VCSH OVC060
     FM281200 06013KT 5SM -SHRA OVC040
     FM281400 05014G24KT 2SM -SHRASN OVC010
     FM281700 04014G24KT 3SM -SHRA OVC008
     FM282000 04011KT 5SM -SHRA OVC010=

USA.gov is the U.S. government's official web portal to all federal, state and local government web resources and services.